KLM73Z EHAM-ENGM
Flight info
| Callsign | KLM73Z |
|---|---|
| Flight time | 1h 21m |
| Altitude | 39000 |
| Route | ANDIK Z733 KONOM DCT AMADA DCT PIPEX M609 RIPAM |
| Aircraft | B737/M-SDE2E3FGHIRWXY/LB1 |
Departure
| Time | 2026-05-07 14:15 |
|---|---|
| Airport | Amsterdam Airport Schiphol (EHAM) |
Arrival
| Time | 2026-05-07 15:37 |
|---|---|
| Airport | Oslo-Gardermoen International Airport (ENGM) |
| Time | Latitude | Longitude | Altitude | Speed | Heading |
|---|---|---|---|---|---|
| 2026-05-07 13:06 | 52.30902 | 4.77239 | -2 ft | 0 kts | 2° |
| 2026-05-07 14:02 | 52.30901 | 4.77239 | -2 ft | 1 kts | 3° |
| 2026-05-07 14:03 | 52.30878 | 4.77239 | -2 ft | 4 kts | 353° |
| 2026-05-07 14:03 | 52.30854 | 4.77242 | -2 ft | 4 kts | 31° |
| 2026-05-07 14:03 | 52.30843 | 4.77218 | -2 ft | 4 kts | 75° |
| 2026-05-07 14:03 | 52.30841 | 4.77208 | -2 ft | 1 kts | 74° |
| 2026-05-07 14:05 | 52.30841 | 4.77214 | -2 ft | 3 kts | 85° |
| 2026-05-07 14:06 | 52.30841 | 4.77281 | -2 ft | 8 kts | 92° |
| 2026-05-07 14:06 | 52.30838 | 4.77394 | -2 ft | 13 kts | 93° |
| 2026-05-07 14:06 | 52.30832 | 4.77563 | -2 ft | 15 kts | 82° |
| 2026-05-07 14:06 | 52.30920 | 4.77613 | -2 ft | 15 kts | 2° |
| 2026-05-07 14:07 | 52.31047 | 4.77623 | -2 ft | 22 kts | 3° |
| 2026-05-07 14:07 | 52.31209 | 4.77639 | -2 ft | 24 kts | 2° |
| 2026-05-07 14:07 | 52.31382 | 4.77653 | -2 ft | 24 kts | 2° |
| 2026-05-07 14:07 | 52.31517 | 4.77548 | -2 ft | 22 kts | 315° |
| 2026-05-07 14:08 | 52.31576 | 4.77334 | -2 ft | 21 kts | 268° |
| 2026-05-07 14:08 | 52.31568 | 4.77081 | -2 ft | 24 kts | 267° |
| 2026-05-07 14:08 | 52.31558 | 4.76799 | -2 ft | 24 kts | 266° |
| 2026-05-07 14:08 | 52.31548 | 4.76519 | -2 ft | 26 kts | 266° |
| 2026-05-07 14:09 | 52.31538 | 4.76212 | -2 ft | 27 kts | 266° |
| 2026-05-07 14:09 | 52.31529 | 4.75955 | -2 ft | 13 kts | 266° |
| 2026-05-07 14:09 | 52.31524 | 4.75813 | -2 ft | 12 kts | 266° |
| 2026-05-07 14:09 | 52.31517 | 4.75617 | -2 ft | 23 kts | 266° |
| 2026-05-07 14:10 | 52.31508 | 4.75327 | -2 ft | 25 kts | 267° |
| 2026-05-07 14:10 | 52.31498 | 4.75040 | -2 ft | 26 kts | 267° |
| 2026-05-07 14:10 | 52.31488 | 4.74751 | -2 ft | 18 kts | 266° |
| 2026-05-07 14:10 | 52.31544 | 4.74664 | -2 ft | 12 kts | 356° |
| 2026-05-07 14:11 | 52.31570 | 4.74661 | -2 ft | 0 kts | 357° |
| 2026-05-07 14:13 | 52.31601 | 4.74661 | -2 ft | 11 kts | 4° |
| 2026-05-07 14:13 | 52.31666 | 4.74719 | -1 ft | 11 kts | 85° |
| 2026-05-07 14:13 | 52.31668 | 4.74771 | -2 ft | 0 kts | 86° |
| 2026-05-07 14:14 | 52.31668 | 4.74772 | -2 ft | 1 kts | 86° |
| 2026-05-07 14:15 | 52.31675 | 4.74975 | -4 ft | 51 kts | 86° |
| 2026-05-07 14:15 | 52.31709 | 4.75988 | -3 ft | 125 kts | 87° |
| 2026-05-07 14:15 | 52.31770 | 4.77741 | 52 ft | 179 kts | 85° |
| 2026-05-07 14:15 | 52.31814 | 4.79821 | 814 ft | 183 kts | 84° |
| 2026-05-07 14:16 | 52.31911 | 4.81868 | 1854 ft | 183 kts | 83° |
| 2026-05-07 14:16 | 52.32054 | 4.84089 | 2370 ft | 211 kts | 83° |
| 2026-05-07 14:16 | 52.32207 | 4.86594 | 2978 ft | 226 kts | 83° |
| 2026-05-07 14:16 | 52.32376 | 4.89173 | 3816 ft | 234 kts | 78° |
| 2026-05-07 14:17 | 52.33112 | 4.91548 | 4779 ft | 238 kts | 49° |
| 2026-05-07 14:17 | 52.34426 | 4.93244 | 5728 ft | 246 kts | 30° |
| 2026-05-07 14:17 | 52.35961 | 4.94580 | 6656 ft | 254 kts | 28° |
| 2026-05-07 14:17 | 52.37554 | 4.95913 | 7528 ft | 262 kts | 27° |
| 2026-05-07 14:18 | 52.39204 | 4.97287 | 8363 ft | 272 kts | 27° |
| 2026-05-07 14:18 | 52.40907 | 4.98714 | 9275 ft | 278 kts | 27° |
| 2026-05-07 14:18 | 52.42642 | 5.00176 | 10209 ft | 283 kts | 27° |
| 2026-05-07 14:18 | 52.44409 | 5.01673 | 11002 ft | 292 kts | 27° |
| 2026-05-07 14:19 | 52.46228 | 5.03221 | 11761 ft | 302 kts | 27° |
| 2026-05-07 14:19 | 52.47495 | 5.04303 | 11965 ft | 319 kts | 27° |
| 2026-05-07 14:19 | 52.49546 | 5.06058 | 12267 ft | 343 kts | 27° |
| 2026-05-07 14:19 | 52.51692 | 5.07899 | 12989 ft | 352 kts | 27° |
| 2026-05-07 14:20 | 52.53871 | 5.09773 | 13975 ft | 354 kts | 27° |
| 2026-05-07 14:20 | 52.56065 | 5.11662 | 14787 ft | 360 kts | 27° |
| 2026-05-07 14:20 | 52.58298 | 5.13587 | 15680 ft | 362 kts | 27° |
| 2026-05-07 14:20 | 52.60538 | 5.15520 | 16568 ft | 366 kts | 27° |
| 2026-05-07 14:21 | 52.62817 | 5.17489 | 17352 ft | 373 kts | 27° |
| 2026-05-07 14:21 | 52.65134 | 5.19493 | 18195 ft | 378 kts | 27° |
| 2026-05-07 14:21 | 52.67482 | 5.21523 | 18918 ft | 384 kts | 27° |
| 2026-05-07 14:21 | 52.69856 | 5.23581 | 19665 ft | 387 kts | 27° |
| 2026-05-07 14:22 | 52.73092 | 5.26274 | 20615 ft | 394 kts | 22° |
| 2026-05-07 14:22 | 52.74811 | 5.27272 | 21085 ft | 396 kts | 15° |
| 2026-05-07 14:22 | 52.77514 | 5.28139 | 21888 ft | 397 kts | 7° |
| 2026-05-07 14:22 | 52.80279 | 5.28740 | 22507 ft | 404 kts | 7° |
| 2026-05-07 14:23 | 52.83083 | 5.29339 | 23214 ft | 408 kts | 7° |
| 2026-05-07 14:23 | 52.85904 | 5.29984 | 23863 ft | 412 kts | 7° |
| 2026-05-07 14:23 | 52.88760 | 5.30681 | 24416 ft | 416 kts | 8° |
| 2026-05-07 14:23 | 52.91600 | 5.31390 | 24990 ft | 411 kts | 8° |
| 2026-05-07 14:24 | 52.94445 | 5.32104 | 25479 ft | 416 kts | 9° |
| 2026-05-07 14:24 | 52.97322 | 5.32828 | 26006 ft | 420 kts | 9° |
| 2026-05-07 14:24 | 53.00214 | 5.33628 | 26589 ft | 422 kts | 13° |
| 2026-05-07 14:24 | 53.03042 | 5.34975 | 27133 ft | 424 kts | 19° |
| 2026-05-07 14:25 | 53.05848 | 5.36510 | 27682 ft | 426 kts | 21° |
| 2026-05-07 14:25 | 53.08657 | 5.38104 | 28240 ft | 427 kts | 21° |
| 2026-05-07 14:25 | 53.11482 | 5.39708 | 28690 ft | 432 kts | 21° |
| 2026-05-07 14:25 | 53.14334 | 5.41315 | 29174 ft | 434 kts | 19° |
| 2026-05-07 14:26 | 53.17200 | 5.42918 | 29705 ft | 436 kts | 20° |
| 2026-05-07 14:26 | 53.20086 | 5.44517 | 30187 ft | 438 kts | 20° |
| 2026-05-07 14:26 | 53.22987 | 5.46115 | 30560 ft | 441 kts | 20° |
| 2026-05-07 14:26 | 53.25912 | 5.47721 | 30901 ft | 444 kts | 20° |
| 2026-05-07 14:27 | 53.28855 | 5.49335 | 31237 ft | 446 kts | 20° |
| 2026-05-07 14:27 | 53.31808 | 5.50955 | 31561 ft | 448 kts | 20° |
| 2026-05-07 14:27 | 53.34775 | 5.52584 | 31988 ft | 448 kts | 20° |
| 2026-05-07 14:27 | 53.37730 | 5.54209 | 32487 ft | 446 kts | 20° |
| 2026-05-07 14:28 | 53.40671 | 5.55829 | 32964 ft | 444 kts | 20° |
| 2026-05-07 14:28 | 53.43603 | 5.57446 | 33372 ft | 444 kts | 20° |
| 2026-05-07 14:28 | 53.46534 | 5.59067 | 33753 ft | 444 kts | 20° |
| 2026-05-07 14:28 | 53.49465 | 5.60690 | 34150 ft | 443 kts | 20° |
| 2026-05-07 14:29 | 53.52390 | 5.62312 | 34473 ft | 443 kts | 20° |
| 2026-05-07 14:29 | 53.55324 | 5.63941 | 34707 ft | 445 kts | 20° |
| 2026-05-07 14:29 | 53.58268 | 5.65579 | 34937 ft | 447 kts | 19° |
| 2026-05-07 14:29 | 53.61222 | 5.67225 | 35213 ft | 447 kts | 19° |
| 2026-05-07 14:30 | 53.64172 | 5.68870 | 35507 ft | 447 kts | 19° |
| 2026-05-07 14:30 | 53.67125 | 5.70520 | 35761 ft | 448 kts | 19° |
| 2026-05-07 14:30 | 53.70087 | 5.72177 | 35974 ft | 449 kts | 19° |
| 2026-05-07 14:30 | 53.73059 | 5.73841 | 36211 ft | 450 kts | 19° |
| 2026-05-07 14:31 | 53.76029 | 5.75504 | 36488 ft | 450 kts | 19° |
| 2026-05-07 14:31 | 53.79007 | 5.77173 | 36672 ft | 452 kts | 19° |
| 2026-05-07 14:31 | 53.81999 | 5.78856 | 36861 ft | 454 kts | 19° |
| 2026-05-07 14:31 | 53.84995 | 5.80543 | 37103 ft | 454 kts | 19° |
| 2026-05-07 14:32 | 53.88000 | 5.82241 | 37343 ft | 455 kts | 18° |
| 2026-05-07 14:32 | 53.90999 | 5.83939 | 37611 ft | 455 kts | 18° |
| 2026-05-07 14:32 | 53.93971 | 5.85622 | 37773 ft | 457 kts | 18° |
| 2026-05-07 14:32 | 53.97027 | 5.87354 | 38029 ft | 457 kts | 18° |
| 2026-05-07 14:33 | 54.00050 | 5.89072 | 38209 ft | 459 kts | 18° |
| 2026-05-07 14:33 | 54.03035 | 5.90772 | 38445 ft | 459 kts | 18° |
| 2026-05-07 14:33 | 54.06059 | 5.92497 | 38729 ft | 458 kts | 18° |
| 2026-05-07 14:33 | 54.09084 | 5.94225 | 38945 ft | 458 kts | 18° |
| 2026-05-07 14:34 | 54.12103 | 5.95950 | 39084 ft | 459 kts | 18° |
| 2026-05-07 14:34 | 54.18199 | 5.99442 | 39099 ft | 462 kts | 18° |
| 2026-05-07 14:35 | 54.24271 | 6.02931 | 39102 ft | 459 kts | 18° |
| 2026-05-07 14:35 | 54.30299 | 6.06406 | 39105 ft | 456 kts | 18° |
| 2026-05-07 14:36 | 54.36292 | 6.09871 | 39111 ft | 454 kts | 18° |
| 2026-05-07 14:36 | 54.42265 | 6.13334 | 39117 ft | 453 kts | 18° |
| 2026-05-07 14:37 | 54.48230 | 6.16804 | 39119 ft | 453 kts | 18° |
| 2026-05-07 14:37 | 54.57217 | 6.22052 | 39120 ft | 456 kts | 18° |
| 2026-05-07 14:38 | 54.63243 | 6.25584 | 39123 ft | 458 kts | 18° |
| 2026-05-07 14:38 | 54.69295 | 6.29143 | 39115 ft | 460 kts | 18° |
| 2026-05-07 14:39 | 54.75369 | 6.32726 | 39116 ft | 462 kts | 18° |
| 2026-05-07 14:39 | 54.81451 | 6.36326 | 39118 ft | 462 kts | 18° |
| 2026-05-07 14:40 | 54.87500 | 6.39917 | 39121 ft | 462 kts | 18° |
| 2026-05-07 14:40 | 54.93583 | 6.43540 | 39118 ft | 462 kts | 18° |
| 2026-05-07 14:41 | 54.99647 | 6.47164 | 39118 ft | 460 kts | 18° |
| 2026-05-07 14:41 | 55.05696 | 6.50789 | 39117 ft | 459 kts | 18° |
| 2026-05-07 14:42 | 55.11727 | 6.54417 | 39126 ft | 458 kts | 18° |
| 2026-05-07 14:42 | 55.17746 | 6.58047 | 39121 ft | 457 kts | 18° |
| 2026-05-07 14:43 | 55.23752 | 6.61682 | 39122 ft | 456 kts | 18° |
| 2026-05-07 14:43 | 55.29747 | 6.65321 | 39122 ft | 456 kts | 18° |
| 2026-05-07 14:44 | 55.35738 | 6.68971 | 39129 ft | 456 kts | 18° |
| 2026-05-07 14:44 | 55.41732 | 6.72633 | 39127 ft | 456 kts | 18° |
| 2026-05-07 14:45 | 55.47725 | 6.76307 | 39127 ft | 456 kts | 18° |
| 2026-05-07 14:45 | 55.53723 | 6.79995 | 39124 ft | 457 kts | 18° |
| 2026-05-07 14:46 | 55.59725 | 6.83698 | 39132 ft | 457 kts | 18° |
| 2026-05-07 14:46 | 55.65732 | 6.87417 | 39127 ft | 458 kts | 18° |
| 2026-05-07 14:47 | 55.71743 | 6.91149 | 39128 ft | 458 kts | 18° |
| 2026-05-07 14:47 | 55.77755 | 6.94895 | 39128 ft | 458 kts | 18° |
| 2026-05-07 14:48 | 55.83774 | 6.98657 | 39127 ft | 458 kts | 18° |
| 2026-05-07 14:48 | 55.89790 | 7.02431 | 39127 ft | 459 kts | 18° |
| 2026-05-07 14:49 | 55.95811 | 7.06219 | 39126 ft | 459 kts | 18° |
| 2026-05-07 14:49 | 56.01826 | 7.10016 | 39123 ft | 459 kts | 18° |
| 2026-05-07 14:50 | 56.07802 | 7.13801 | 39128 ft | 458 kts | 18° |
| 2026-05-07 14:50 | 56.13815 | 7.17622 | 39126 ft | 459 kts | 18° |
| 2026-05-07 14:51 | 56.19833 | 7.21459 | 39130 ft | 459 kts | 18° |
| 2026-05-07 14:51 | 56.25852 | 7.25310 | 39127 ft | 459 kts | 18° |
| 2026-05-07 14:52 | 56.31874 | 7.29175 | 39124 ft | 460 kts | 18° |
| 2026-05-07 14:52 | 56.37898 | 7.33055 | 39125 ft | 460 kts | 18° |
| 2026-05-07 14:53 | 56.43931 | 7.36953 | 39126 ft | 460 kts | 18° |
| 2026-05-07 14:53 | 56.49967 | 7.40866 | 39122 ft | 461 kts | 18° |
| 2026-05-07 14:54 | 56.56001 | 7.44792 | 39122 ft | 461 kts | 18° |
| 2026-05-07 14:54 | 56.62041 | 7.48735 | 39133 ft | 461 kts | 18° |
| 2026-05-07 14:55 | 56.68086 | 7.52695 | 39120 ft | 462 kts | 18° |
| 2026-05-07 14:55 | 56.74135 | 7.56670 | 39122 ft | 462 kts | 18° |
| 2026-05-07 14:56 | 56.80183 | 7.60659 | 39122 ft | 462 kts | 18° |
| 2026-05-07 14:56 | 56.86232 | 7.64662 | 39119 ft | 462 kts | 18° |
| 2026-05-07 14:57 | 56.92279 | 7.68679 | 39124 ft | 463 kts | 18° |
| 2026-05-07 14:57 | 56.98329 | 7.72710 | 39118 ft | 463 kts | 18° |
| 2026-05-07 14:58 | 57.04380 | 7.76756 | 39117 ft | 463 kts | 18° |
| 2026-05-07 14:58 | 57.10425 | 7.80812 | 39117 ft | 463 kts | 18° |
| 2026-05-07 14:59 | 57.16473 | 7.84885 | 39125 ft | 463 kts | 18° |
| 2026-05-07 14:59 | 57.22520 | 7.88971 | 39117 ft | 463 kts | 18° |
| 2026-05-07 15:00 | 57.28562 | 7.93068 | 39122 ft | 463 kts | 18° |
| 2026-05-07 15:00 | 57.34604 | 7.97179 | 39126 ft | 462 kts | 18° |
| 2026-05-07 15:01 | 57.40641 | 8.01302 | 39138 ft | 462 kts | 18° |
| 2026-05-07 15:01 | 57.46679 | 8.05439 | 39125 ft | 463 kts | 18° |
| 2026-05-07 15:02 | 57.52717 | 8.09592 | 39121 ft | 463 kts | 18° |
| 2026-05-07 15:02 | 57.58749 | 8.13755 | 39123 ft | 462 kts | 18° |
| 2026-05-07 15:03 | 57.64781 | 8.17932 | 39123 ft | 462 kts | 18° |
| 2026-05-07 15:03 | 57.70806 | 8.22120 | 39133 ft | 462 kts | 18° |
| 2026-05-07 15:04 | 57.76832 | 8.26323 | 39125 ft | 462 kts | 18° |
| 2026-05-07 15:04 | 57.82854 | 8.30538 | 39125 ft | 462 kts | 18° |
| 2026-05-07 15:05 | 57.87855 | 8.34051 | 39127 ft | 462 kts | 18° |
| 2026-05-07 15:05 | 57.93868 | 8.38288 | 39143 ft | 461 kts | 17° |
| 2026-05-07 15:06 | 58.00849 | 8.43226 | 39129 ft | 461 kts | 17° |
| 2026-05-07 15:06 | 58.06856 | 8.47491 | 39124 ft | 461 kts | 17° |
| 2026-05-07 15:07 | 58.11844 | 8.51045 | 39126 ft | 461 kts | 17° |
| 2026-05-07 15:07 | 58.17840 | 8.55331 | 39125 ft | 461 kts | 17° |
| 2026-05-07 15:08 | 58.23834 | 8.59631 | 39123 ft | 461 kts | 17° |
| 2026-05-07 15:08 | 58.29834 | 8.63950 | 39119 ft | 461 kts | 17° |
| 2026-05-07 15:09 | 58.35828 | 8.68282 | 39126 ft | 461 kts | 17° |
| 2026-05-07 15:09 | 58.41823 | 8.72629 | 39114 ft | 461 kts | 17° |
| 2026-05-07 15:10 | 58.47821 | 8.76996 | 39117 ft | 462 kts | 17° |
| 2026-05-07 15:10 | 58.53824 | 8.81382 | 39126 ft | 462 kts | 17° |
| 2026-05-07 15:11 | 58.59822 | 8.85813 | 39111 ft | 463 kts | 19° |
| 2026-05-07 15:11 | 58.65704 | 8.90872 | 39125 ft | 464 kts | 22° |
| 2026-05-07 15:12 | 58.71518 | 8.96175 | 39121 ft | 464 kts | 22° |
| 2026-05-07 15:12 | 58.77370 | 9.01471 | 39116 ft | 465 kts | 21° |
| 2026-05-07 15:13 | 58.83234 | 9.06727 | 39107 ft | 465 kts | 21° |
| 2026-05-07 15:13 | 58.89108 | 9.11985 | 39109 ft | 465 kts | 21° |
| 2026-05-07 15:14 | 58.94978 | 9.17257 | 39102 ft | 465 kts | 21° |
| 2026-05-07 15:14 | 59.00848 | 9.22551 | 39127 ft | 466 kts | 21° |
| 2026-05-07 15:15 | 59.06734 | 9.27882 | 39101 ft | 466 kts | 21° |
| 2026-05-07 15:15 | 59.09681 | 9.30557 | 38811 ft | 472 kts | 21° |
| 2026-05-07 15:15 | 59.12667 | 9.33272 | 38148 ft | 473 kts | 21° |
| 2026-05-07 15:16 | 59.15594 | 9.35943 | 37515 ft | 470 kts | 20° |
| 2026-05-07 15:16 | 59.18584 | 9.38679 | 36852 ft | 467 kts | 20° |
| 2026-05-07 15:16 | 59.21473 | 9.41327 | 36187 ft | 465 kts | 20° |
| 2026-05-07 15:16 | 59.24396 | 9.44009 | 35457 ft | 464 kts | 20° |
| 2026-05-07 15:17 | 59.27318 | 9.46691 | 34729 ft | 464 kts | 19° |
| 2026-05-07 15:17 | 59.30245 | 9.49380 | 33871 ft | 465 kts | 18° |
| 2026-05-07 15:17 | 59.33175 | 9.52074 | 32945 ft | 466 kts | 19° |
| 2026-05-07 15:17 | 59.36101 | 9.54776 | 32076 ft | 464 kts | 19° |
| 2026-05-07 15:18 | 59.39022 | 9.57484 | 31190 ft | 464 kts | 19° |
| 2026-05-07 15:18 | 59.41945 | 9.60199 | 30261 ft | 465 kts | 19° |
| 2026-05-07 15:18 | 59.44874 | 9.62922 | 29245 ft | 466 kts | 19° |
| 2026-05-07 15:18 | 59.47733 | 9.65761 | 28833 ft | 457 kts | 26° |
| 2026-05-07 15:19 | 59.50346 | 9.69250 | 28558 ft | 453 kts | 30° |
| 2026-05-07 15:19 | 59.52935 | 9.72914 | 28349 ft | 462 kts | 30° |
| 2026-05-07 15:19 | 59.55516 | 9.76614 | 28052 ft | 457 kts | 30° |
| 2026-05-07 15:19 | 59.58066 | 9.80273 | 27778 ft | 450 kts | 30° |
| 2026-05-07 15:20 | 59.60601 | 9.83887 | 27513 ft | 448 kts | 30° |
| 2026-05-07 15:20 | 59.63138 | 9.87477 | 26920 ft | 450 kts | 29° |
| 2026-05-07 15:20 | 59.65682 | 9.91064 | 26257 ft | 447 kts | 30° |
| 2026-05-07 15:20 | 59.68209 | 9.94625 | 25578 ft | 445 kts | 30° |
| 2026-05-07 15:21 | 59.70720 | 9.98166 | 24868 ft | 441 kts | 30° |
| 2026-05-07 15:21 | 59.73205 | 10.01677 | 24202 ft | 437 kts | 30° |
| 2026-05-07 15:21 | 59.75666 | 10.05160 | 23495 ft | 433 kts | 30° |
| 2026-05-07 15:21 | 59.78108 | 10.08621 | 22695 ft | 429 kts | 30° |
| 2026-05-07 15:22 | 59.80520 | 10.12050 | 22015 ft | 424 kts | 30° |
| 2026-05-07 15:22 | 59.82904 | 10.15443 | 21307 ft | 420 kts | 30° |
| 2026-05-07 15:22 | 59.85263 | 10.18807 | 20621 ft | 415 kts | 30° |
| 2026-05-07 15:22 | 59.87594 | 10.22138 | 19943 ft | 410 kts | 31° |
| 2026-05-07 15:23 | 59.89900 | 10.25438 | 19278 ft | 406 kts | 31° |
| 2026-05-07 15:23 | 59.92183 | 10.28709 | 18623 ft | 402 kts | 31° |
| 2026-05-07 15:23 | 59.94441 | 10.31948 | 17904 ft | 399 kts | 31° |
| 2026-05-07 15:23 | 59.96680 | 10.35169 | 17187 ft | 395 kts | 32° |
| 2026-05-07 15:24 | 59.98896 | 10.38360 | 16526 ft | 390 kts | 32° |
| 2026-05-07 15:24 | 60.01081 | 10.41513 | 15879 ft | 385 kts | 32° |
| 2026-05-07 15:24 | 60.03209 | 10.44589 | 15228 ft | 381 kts | 33° |
| 2026-05-07 15:24 | 60.05338 | 10.47672 | 14607 ft | 378 kts | 33° |
| 2026-05-07 15:25 | 60.07454 | 10.50739 | 13971 ft | 374 kts | 33° |
| 2026-05-07 15:25 | 60.09552 | 10.53786 | 13254 ft | 371 kts | 33° |
| 2026-05-07 15:25 | 60.11625 | 10.56801 | 12620 ft | 366 kts | 33° |
| 2026-05-07 15:25 | 60.13675 | 10.59789 | 11965 ft | 361 kts | 33° |
| 2026-05-07 15:26 | 60.15695 | 10.62738 | 11328 ft | 357 kts | 33° |
| 2026-05-07 15:26 | 60.17691 | 10.65657 | 10701 ft | 353 kts | 34° |
| 2026-05-07 15:26 | 60.19642 | 10.68516 | 10477 ft | 338 kts | 34° |
| 2026-05-07 15:26 | 60.21496 | 10.71238 | 10311 ft | 323 kts | 33° |
| 2026-05-07 15:27 | 60.23272 | 10.73848 | 10173 ft | 309 kts | 33° |
| 2026-05-07 15:27 | 60.24967 | 10.76341 | 10031 ft | 295 kts | 33° |
| 2026-05-07 15:27 | 60.26619 | 10.78767 | 9627 ft | 292 kts | 33° |
| 2026-05-07 15:27 | 60.28245 | 10.81160 | 9236 ft | 288 kts | 34° |
| 2026-05-07 15:28 | 60.29857 | 10.83539 | 8845 ft | 285 kts | 34° |
| 2026-05-07 15:28 | 60.31455 | 10.85899 | 8425 ft | 284 kts | 34° |
| 2026-05-07 15:28 | 60.33042 | 10.88244 | 8010 ft | 282 kts | 35° |
| 2026-05-07 15:28 | 60.34618 | 10.90578 | 7619 ft | 280 kts | 35° |
| 2026-05-07 15:29 | 60.36181 | 10.92896 | 7203 ft | 279 kts | 35° |
| 2026-05-07 15:29 | 60.37744 | 10.95218 | 6799 ft | 278 kts | 36° |
| 2026-05-07 15:29 | 60.39295 | 10.97521 | 6427 ft | 276 kts | 36° |
| 2026-05-07 15:29 | 60.40840 | 10.99820 | 6010 ft | 275 kts | 36° |
| 2026-05-07 15:30 | 60.42361 | 11.02084 | 5809 ft | 265 kts | 36° |
| 2026-05-07 15:30 | 60.43806 | 11.04275 | 5682 ft | 254 kts | 41° |
| 2026-05-07 15:30 | 60.44776 | 11.07127 | 5580 ft | 243 kts | 72° |
| 2026-05-07 15:30 | 60.44924 | 11.10488 | 5501 ft | 240 kts | 99° |
| 2026-05-07 15:31 | 60.44381 | 11.13629 | 5407 ft | 236 kts | 122° |
| 2026-05-07 15:31 | 60.43388 | 11.16265 | 5318 ft | 236 kts | 131° |
| 2026-05-07 15:31 | 60.42318 | 11.18767 | 5028 ft | 240 kts | 131° |
| 2026-05-07 15:31 | 60.41237 | 11.21276 | 4779 ft | 232 kts | 132° |
| 2026-05-07 15:32 | 60.40077 | 11.23433 | 4466 ft | 224 kts | 156° |
| 2026-05-07 15:32 | 60.38613 | 11.23731 | 4274 ft | 210 kts | 199° |
| 2026-05-07 15:32 | 60.37308 | 11.22573 | 4059 ft | 201 kts | 205° |
| 2026-05-07 15:32 | 60.36052 | 11.21563 | 4002 ft | 193 kts | 200° |
| 2026-05-07 15:33 | 60.34768 | 11.20729 | 3741 ft | 196 kts | 197° |
| 2026-05-07 15:33 | 60.33453 | 11.19956 | 3473 ft | 192 kts | 197° |
| 2026-05-07 15:33 | 60.32185 | 11.19222 | 3216 ft | 188 kts | 197° |
| 2026-05-07 15:33 | 60.30970 | 11.18521 | 2980 ft | 182 kts | 197° |
| 2026-05-07 15:34 | 60.29769 | 11.17829 | 2715 ft | 175 kts | 197° |
| 2026-05-07 15:34 | 60.28635 | 11.17174 | 2484 ft | 167 kts | 197° |
| 2026-05-07 15:34 | 60.27537 | 11.16538 | 2260 ft | 162 kts | 197° |
| 2026-05-07 15:34 | 60.26438 | 11.15902 | 2049 ft | 164 kts | 197° |
| 2026-05-07 15:35 | 60.25370 | 11.15285 | 1856 ft | 152 kts | 197° |
| 2026-05-07 15:35 | 60.24384 | 11.14715 | 1596 ft | 139 kts | 197° |
| 2026-05-07 15:35 | 60.23478 | 11.14191 | 1412 ft | 133 kts | 197° |
| 2026-05-07 15:35 | 60.22581 | 11.13672 | 1231 ft | 136 kts | 197° |
| 2026-05-07 15:36 | 60.21671 | 11.13146 | 1039 ft | 136 kts | 197° |
| 2026-05-07 15:36 | 60.20764 | 11.12629 | 848 ft | 135 kts | 198° |
| 2026-05-07 15:36 | 60.19870 | 11.12106 | 695 ft | 132 kts | 198° |
| 2026-05-07 15:36 | 60.19067 | 11.11639 | 683 ft | 106 kts | 196° |
| 2026-05-07 15:37 | 60.18562 | 11.11342 | 680 ft | 33 kts | 205° |
| 2026-05-07 15:37 | 60.18439 | 11.11117 | 682 ft | 18 kts | 252° |
| 2026-05-07 15:37 | 60.18457 | 11.10908 | 679 ft | 15 kts | 287° |
| 2026-05-07 15:37 | 60.18507 | 11.10757 | 681 ft | 13 kts | 356° |
| 2026-05-07 15:38 | 60.18595 | 11.10804 | 681 ft | 13 kts | 16° |
| 2026-05-07 15:38 | 60.18682 | 11.10855 | 681 ft | 14 kts | 16° |
| 2026-05-07 15:38 | 60.18799 | 11.10923 | 682 ft | 20 kts | 15° |
| 2026-05-07 15:38 | 60.18934 | 11.11001 | 682 ft | 21 kts | 16° |
| 2026-05-07 15:39 | 60.19072 | 11.11080 | 682 ft | 18 kts | 16° |
| 2026-05-07 15:39 | 60.19171 | 11.11073 | 681 ft | 14 kts | 301° |
| 2026-05-07 15:39 | 60.19200 | 11.10882 | 684 ft | 14 kts | 285° |
| 2026-05-07 15:39 | 60.19226 | 11.10696 | 684 ft | 14 kts | 286° |
| 2026-05-07 15:40 | 60.19252 | 11.10517 | 678 ft | 13 kts | 286° |
| 2026-05-07 15:40 | 60.19273 | 11.10402 | 681 ft | 5 kts | 323° |
| 2026-05-07 15:40 | 60.19310 | 11.10411 | 684 ft | 5 kts | 15° |
| 2026-05-07 15:40 | 60.19324 | 11.10420 | 681 ft | 0 kts | 16° |